createdAt,value
2018-12-02T00:01:53.243Z,67.00
2018-12-02T00:04:21.569Z,69.77
2018-12-02T00:06:49.917Z,69.10
2018-12-02T00:09:18.262Z,67.27
2018-12-02T00:11:46.637Z,72.47
2018-12-02T00:14:15.196Z,68.27
2018-12-02T00:16:43.898Z,70.43
2018-12-02T00:19:12.244Z,108.47
2018-12-02T00:21:40.595Z,71.60
2018-12-02T00:24:08.957Z,67.00
2018-12-02T00:26:37.327Z,70.10
2018-12-02T00:29:05.679Z,68.77
2018-12-02T00:31:34.015Z,69.63
2018-12-02T00:34:02.354Z,73.80
2018-12-02T00:36:30.691Z,78.70
2018-12-02T00:38:59.054Z,70.83
2018-12-02T00:41:27.382Z,73.87
2018-12-02T00:43:55.703Z,72.03
2018-12-02T00:46:24.442Z,75.73
2018-12-02T00:48:53.377Z,74.30
2018-12-02T00:51:21.751Z,66.83
2018-12-02T00:53:50.079Z,79.47
2018-12-02T00:56:17.902Z,76.00
2018-12-02T00:58:46.234Z,79.00
2018-12-02T01:01:14.667Z,73.80
2018-12-02T01:03:43.008Z,72.23
2018-12-02T01:06:11.326Z,75.83
2018-12-02T01:08:39.667Z,82.07
2018-12-02T01:11:08.030Z,84.20
2018-12-02T01:13:36.367Z,81.47
2018-12-02T01:16:04.696Z,78.97
2018-12-02T01:18:33.272Z,84.77
2018-12-02T01:21:01.389Z,82.80
2018-12-02T01:23:29.729Z,74.73
2018-12-02T01:25:58.420Z,86.47
2018-12-02T01:28:26.761Z,84.67
2018-12-02T01:30:55.169Z,79.37
2018-12-02T01:33:23.542Z,80.73
2018-12-02T01:35:51.895Z,83.77
2018-12-02T01:38:20.234Z,85.30
2018-12-02T01:40:48.614Z,95.00
2018-12-02T01:43:16.901Z,87.27
2018-12-02T01:45:45.242Z,80.17
2018-12-02T01:48:13.576Z,91.50
2018-12-02T01:50:41.921Z,94.87
2018-12-02T01:53:10.245Z,95.57
2018-12-02T01:55:38.614Z,93.37
2018-12-02T01:58:06.966Z,103.40
2018-12-02T02:00:35.317Z,96.40
2018-12-02T02:03:03.709Z,95.73
2018-12-02T02:05:32.043Z,93.90
2018-12-02T02:08:00.372Z,96.73
2018-12-02T02:10:28.704Z,93.60
2018-12-02T02:12:57.046Z,93.47
2018-12-02T02:15:25.381Z,99.07
2018-12-02T02:17:53.718Z,98.23
2018-12-02T02:20:22.055Z,94.97
2018-12-02T02:22:50.394Z,95.17
2018-12-02T02:25:18.741Z,97.30
2018-12-02T02:27:47.094Z,93.17
2018-12-02T02:30:15.426Z,94.70
2018-12-02T02:32:43.772Z,100.10
2018-12-02T02:35:12.135Z,95.03
2018-12-02T02:37:40.520Z,95.63
2018-12-02T02:40:08.885Z,93.03
2018-12-02T02:42:37.737Z,94.63
2018-12-02T02:45:05.852Z,89.00
2018-12-02T02:47:34.189Z,90.80
2018-12-02T02:50:02.524Z,119.20
2018-12-02T02:52:30.929Z,108.50
2018-12-02T02:54:59.277Z,90.03
2018-12-02T02:57:27.615Z,90.43
2018-12-02T02:59:55.956Z,84.80
2018-12-02T03:02:24.294Z,78.87
2018-12-02T03:04:52.660Z,79.60
2018-12-02T03:07:21.008Z,78.80
2018-12-02T03:09:49.348Z,76.80
2018-12-02T03:12:17.679Z,77.07
2018-12-02T03:14:46.016Z,75.90
2018-12-02T03:17:14.360Z,79.57
2018-12-02T03:19:42.697Z,81.23
2018-12-02T03:22:11.037Z,79.60
2018-12-02T03:24:39.367Z,82.13
2018-12-02T03:27:07.728Z,79.67
2018-12-02T03:29:36.068Z,80.87
2018-12-02T03:32:04.435Z,80.03
2018-12-02T03:34:32.760Z,81.73
2018-12-02T03:37:01.114Z,93.07
2018-12-02T03:39:29.470Z,94.00
2018-12-02T03:41:57.797Z,90.10
2018-12-02T03:44:26.151Z,93.40
2018-12-02T03:46:54.495Z,84.93
2018-12-02T03:49:22.848Z,85.10
2018-12-02T03:51:51.226Z,90.80
2018-12-02T03:54:19.571Z,95.50
2018-12-02T03:56:47.918Z,81.60
2018-12-02T03:59:16.566Z,86.37
2018-12-02T04:01:45.131Z,79.77
2018-12-02T04:04:13.246Z,85.13
2018-12-02T04:06:41.643Z,82.80
2018-12-02T04:09:10.014Z,79.47
2018-12-02T04:11:38.356Z,79.17
2018-12-02T04:14:06.693Z,85.20
2018-12-02T04:16:35.021Z,82.33
2018-12-02T04:19:03.368Z,81.03
2018-12-02T04:21:31.704Z,79.23
2018-12-02T04:24:00.031Z,82.47
2018-12-02T04:26:28.375Z,86.10
2018-12-02T04:28:56.705Z,80.33
2018-12-02T04:31:25.043Z,89.97
2018-12-02T04:33:53.380Z,96.03
2018-12-02T04:36:21.726Z,94.30
2018-12-02T04:38:50.063Z,99.50
2018-12-02T04:41:18.398Z,94.47
2018-12-02T04:43:46.742Z,92.03
2018-12-02T04:46:15.072Z,90.53
2018-12-02T04:48:43.425Z,83.07
2018-12-02T04:51:11.764Z,98.17
2018-12-02T04:53:40.105Z,96.43
2018-12-02T04:56:08.459Z,111.47
2018-12-02T04:58:36.802Z,126.57
2018-12-02T05:01:05.146Z,153.33
2018-12-02T05:03:33.503Z,170.27
2018-12-02T05:06:01.867Z,177.60
2018-12-02T05:08:30.243Z,144.03
2018-12-02T05:10:58.589Z,109.70
2018-12-02T05:13:26.927Z,114.43
2018-12-02T05:15:55.278Z,92.23
2018-12-02T05:18:23.617Z,97.10
2018-12-02T05:20:51.972Z,89.73
2018-12-02T05:23:20.314Z,90.77
2018-12-02T05:25:48.695Z,122.20
2018-12-02T05:28:17.042Z,104.73
2018-12-02T05:30:45.387Z,92.07
2018-12-02T05:33:13.723Z,82.03
2018-12-02T05:35:42.291Z,95.93
2018-12-02T05:38:10.416Z,97.97
2018-12-02T05:40:38.772Z,102.27
2018-12-02T05:43:07.108Z,82.70
2018-12-02T05:45:35.455Z,90.60
2018-12-02T05:48:03.784Z,90.83
2018-12-02T05:50:32.124Z,95.90
2018-12-02T05:53:00.465Z,109.53
2018-12-02T05:55:28.816Z,131.27
2018-12-02T05:57:57.144Z,123.70
2018-12-02T06:00:25.512Z,109.97
2018-12-02T06:02:53.885Z,102.60
2018-12-02T06:05:22.236Z,106.70
2018-12-02T06:07:50.574Z,98.10
2018-12-02T06:10:19.100Z,102.57
2018-12-02T06:12:47.452Z,97.43
2018-12-02T06:15:15.792Z,85.20
2018-12-02T06:17:44.136Z,86.77
2018-12-02T06:20:12.470Z,83.77
2018-12-02T06:22:40.842Z,84.50
2018-12-02T06:25:09.215Z,86.97
2018-12-02T06:27:37.556Z,105.17
2018-12-02T06:30:05.902Z,93.90
2018-12-02T06:32:34.241Z,94.97
2018-12-02T06:35:02.579Z,105.67
2018-12-02T06:37:30.929Z,108.77
2018-12-02T06:39:59.279Z,101.73
2018-12-02T06:42:27.641Z,111.07
2018-12-02T06:44:55.984Z,107.20
2018-12-02T06:47:24.329Z,107.43
2018-12-02T06:49:52.677Z,108.67
2018-12-02T06:52:21.036Z,118.03
2018-12-02T06:54:49.403Z,112.60
2018-12-02T06:57:17.737Z,104.87
2018-12-02T06:59:46.104Z,127.03
2018-12-02T07:02:14.443Z,124.23
2018-12-02T07:04:42.786Z,121.40
2018-12-02T07:07:11.148Z,115.27
2018-12-02T07:09:39.503Z,112.10
2018-12-02T07:12:08.135Z,91.43
2018-12-02T07:14:36.465Z,84.20
2018-12-02T07:17:04.816Z,82.50
2018-12-02T07:19:33.166Z,88.67
2018-12-02T07:22:01.515Z,95.97
2018-12-02T07:24:29.858Z,102.17
2018-12-02T07:26:58.226Z,93.40
2018-12-02T07:29:26.570Z,88.27
2018-12-02T07:31:54.911Z,89.57
2018-12-02T07:34:23.272Z,89.20
2018-12-02T07:36:51.616Z,90.00
2018-12-02T07:39:20.162Z,97.73
2018-12-02T07:41:49.994Z,213.13
2018-12-02T07:44:18.293Z,64.97
2018-12-02T07:46:46.634Z,69.60
2018-12-02T07:49:15.000Z,80.10
2018-12-02T07:51:43.318Z,63.27
2018-12-02T07:54:11.657Z,50.50
2018-12-02T07:56:40.010Z,46.73
2018-12-02T07:59:08.395Z,46.97
2018-12-02T08:01:36.973Z,48.80
2018-12-02T08:04:05.315Z,39.47
2018-12-02T08:06:33.891Z,42.10
2018-12-02T08:09:02.009Z,41.43
2018-12-02T08:11:30.332Z,40.17
2018-12-02T08:13:58.705Z,36.20
2018-12-02T08:16:27.903Z,37.77
2018-12-02T08:18:56.235Z,36.53
2018-12-02T08:21:24.562Z,38.97
2018-12-02T08:23:52.906Z,39.97
2018-12-02T08:26:28.229Z,38.37
2018-12-02T08:28:58.647Z,36.13
2018-12-02T08:31:27.025Z,40.43
2018-12-02T08:33:55.371Z,36.93
2018-12-02T08:36:23.748Z,158.10
2018-12-02T08:38:52.102Z,48.23
2018-12-02T08:41:20.433Z,34.73
2018-12-02T08:43:48.774Z,37.83
2018-12-02T08:46:17.356Z,30.90
2018-12-02T08:48:45.464Z,33.77
2018-12-02T08:51:13.803Z,30.27
2018-12-02T08:53:42.389Z,32.67
2018-12-02T08:56:11.007Z,30.87
2018-12-02T08:58:39.352Z,29.40
2018-12-02T09:01:07.705Z,30.10
2018-12-02T09:03:36.428Z,28.80
2018-12-02T09:06:05.170Z,30.30
2018-12-02T09:08:35.039Z,30.23
2018-12-02T09:11:03.438Z,28.27
2018-12-02T09:13:31.840Z,26.60
2018-12-02T09:16:00.733Z,26.93
2018-12-02T09:18:29.082Z,37.43
2018-12-02T09:20:57.466Z,35.77
2018-12-02T09:23:25.790Z,29.83
2018-12-02T09:25:54.366Z,29.57
2018-12-02T09:28:22.488Z,31.33
2018-12-02T09:30:50.856Z,27.70
2018-12-02T09:33:19.498Z,46.00
2018-12-02T09:35:47.829Z,40.63
2018-12-02T09:38:16.159Z,38.40
2018-12-02T09:40:44.492Z,78.23
2018-12-02T09:43:12.834Z,40.63
2018-12-02T09:45:41.190Z,37.97
2018-12-02T09:48:09.536Z,37.77
2018-12-02T09:50:38.667Z,39.03
2018-12-02T09:53:07.318Z,33.80
2018-12-02T09:55:35.685Z,37.27
2018-12-02T09:58:04.038Z,44.87
2018-12-02T10:00:34.365Z,37.00
2018-12-02T10:03:00.703Z,39.87
2018-12-02T10:05:29.035Z,42.07
2018-12-02T10:07:57.378Z,37.63
2018-12-02T10:10:25.721Z,40.33
2018-12-02T10:12:54.067Z,45.13
2018-12-02T10:15:22.399Z,48.00
2018-12-02T10:17:50.870Z,39.83
2018-12-02T10:20:19.249Z,48.80
2018-12-02T10:22:47.873Z,59.53
2018-12-02T10:25:16.206Z,43.73
2018-12-02T10:27:44.542Z,39.07
2018-12-02T10:30:12.876Z,43.90
2018-12-02T10:32:41.218Z,42.03
2018-12-02T10:35:09.563Z,41.60
2018-12-02T10:37:37.948Z,43.60
2018-12-02T10:40:06.292Z,40.33
2018-12-02T10:42:34.647Z,40.07
2018-12-02T10:45:03.020Z,43.83
2018-12-02T10:47:31.366Z,45.37
2018-12-02T10:50:00.175Z,45.37
2018-12-02T10:52:28.511Z,44.03
2018-12-02T10:54:56.866Z,43.77
2018-12-02T10:57:25.204Z,41.10
2018-12-02T10:59:53.538Z,47.80
2018-12-02T11:02:21.874Z,43.97
2018-12-02T11:04:50.210Z,43.27
2018-12-02T11:07:18.560Z,48.80
2018-12-02T11:09:46.902Z,45.83
2018-12-02T11:12:15.238Z,44.60
2018-12-02T11:14:43.592Z,44.53
2018-12-02T11:17:11.935Z,42.10
2018-12-02T11:19:40.360Z,43.77
2018-12-02T11:22:08.722Z,44.57
2018-12-02T11:24:37.076Z,45.80
2018-12-02T11:27:05.422Z,43.40
2018-12-02T11:29:33.776Z,40.97
2018-12-02T11:32:02.175Z,50.30
2018-12-02T11:34:30.521Z,48.00
2018-12-02T11:36:58.924Z,45.80
2018-12-02T11:39:27.388Z,43.90
2018-12-02T11:41:55.764Z,45.60
2018-12-02T11:44:24.329Z,56.77
2018-12-02T11:46:52.712Z,44.90
2018-12-02T11:49:21.079Z,45.73
2018-12-02T11:51:49.429Z,44.33
2018-12-02T11:54:18.810Z,43.23
2018-12-02T11:56:47.268Z,41.83
2018-12-02T11:59:15.614Z,39.90
2018-12-02T12:01:44.095Z,41.40
2018-12-02T12:04:12.448Z,38.43
2018-12-02T12:06:40.979Z,42.63
2018-12-02T12:09:09.320Z,42.30
2018-12-02T12:11:37.695Z,42.70
2018-12-02T12:14:06.042Z,41.70
2018-12-02T12:16:34.435Z,37.57
2018-12-02T12:19:02.803Z,38.27
2018-12-02T12:21:31.203Z,38.63
2018-12-02T12:23:59.551Z,42.13
2018-12-02T12:26:28.017Z,38.77
2018-12-02T12:28:56.378Z,39.93
2018-12-02T12:31:24.739Z,39.63
2018-12-02T12:33:53.115Z,38.83
2018-12-02T12:36:21.480Z,44.63
2018-12-02T12:38:49.815Z,42.70
2018-12-02T12:41:18.157Z,37.17
2018-12-02T12:43:46.513Z,40.60
2018-12-02T12:46:14.842Z,40.17
2018-12-02T12:48:43.222Z,42.40
2018-12-02T12:51:11.550Z,42.07
2018-12-02T12:53:39.895Z,38.43
2018-12-02T12:56:08.243Z,40.70
2018-12-02T12:58:36.725Z,38.67
2018-12-02T13:01:05.061Z,44.53
2018-12-02T13:03:33.655Z,39.10
2018-12-02T13:06:02.004Z,45.57
2018-12-02T13:08:30.340Z,41.43
2018-12-02T13:10:58.721Z,40.77
2018-12-02T13:13:27.077Z,45.63
2018-12-02T13:15:55.446Z,44.77
2018-12-02T13:18:23.778Z,43.53
2018-12-02T13:20:52.138Z,42.20
2018-12-02T13:23:20.630Z,58.93
2018-12-02T13:25:48.993Z,82.10
2018-12-02T13:28:17.320Z,61.67
2018-12-02T13:30:46.472Z,57.57
2018-12-02T13:33:15.504Z,60.50
2018-12-02T13:35:44.075Z,55.30
2018-12-02T13:38:12.197Z,55.93
2018-12-02T13:40:40.523Z,55.60
2018-12-02T13:43:08.890Z,59.00
2018-12-02T13:45:37.271Z,52.03
2018-12-02T13:48:05.620Z,55.30
2018-12-02T13:50:34.065Z,56.30
2018-12-02T13:53:02.442Z,54.27
2018-12-02T13:55:31.010Z,58.87
2018-12-02T13:57:59.460Z,57.60
2018-12-02T14:00:27.791Z,59.87
2018-12-02T14:02:56.163Z,58.67
2018-12-02T14:05:24.584Z,58.67
2018-12-02T14:07:52.921Z,57.27
2018-12-02T14:10:21.856Z,52.73
2018-12-02T14:12:50.289Z,59.20
2018-12-02T14:15:18.678Z,59.93
2018-12-02T14:17:47.059Z,57.10
2018-12-02T14:20:20.635Z,58.53
2018-12-02T14:22:48.826Z,62.33
2018-12-02T14:25:17.234Z,56.53
2018-12-02T14:27:45.676Z,62.57
2018-12-02T14:30:14.047Z,60.73
2018-12-02T14:32:43.164Z,62.87
2018-12-02T14:35:11.496Z,59.73
2018-12-02T14:37:40.268Z,62.73
2018-12-02T14:40:08.602Z,64.43
2018-12-02T14:42:37.274Z,61.87
2018-12-02T14:45:05.731Z,63.50
2018-12-02T14:47:34.303Z,62.70
2018-12-02T14:50:03.546Z,61.73
2018-12-02T14:52:33.434Z,59.40
2018-12-02T14:55:02.168Z,57.37
2018-12-02T14:57:30.578Z,52.33
2018-12-02T14:59:59.057Z,50.77
2018-12-02T15:02:27.460Z,52.67
2018-12-02T15:04:56.618Z,48.30
2018-12-02T15:07:25.105Z,51.53
2018-12-02T15:09:53.567Z,50.47
2018-12-02T15:12:22.001Z,49.60
2018-12-02T15:14:52.241Z,52.00
2018-12-02T15:17:21.277Z,54.53
2018-12-02T15:19:50.767Z,50.77
2018-12-02T15:22:19.229Z,49.87
2018-12-02T15:24:47.580Z,54.57
2018-12-02T15:27:16.562Z,54.57
2018-12-02T15:29:44.914Z,52.27
2018-12-02T15:32:13.457Z,52.80
2018-12-02T15:34:41.847Z,47.73
2018-12-02T15:37:10.416Z,53.90
2018-12-02T15:39:38.633Z,51.43
2018-12-02T15:42:07.385Z,51.53
2018-12-02T15:44:37.110Z,51.10
2018-12-02T15:47:05.549Z,46.60
2018-12-02T15:49:34.093Z,41.57
2018-12-02T15:52:02.725Z,43.40
2018-12-02T15:54:31.060Z,104.40
2018-12-02T15:56:59.420Z,104.23
2018-12-02T15:59:30.570Z,50.00
2018-12-02T16:02:00.084Z,49.83
2018-12-02T16:04:36.858Z,73.97
2018-12-02T16:07:06.075Z,54.90
2018-12-02T16:09:35.543Z,46.33
2018-12-02T16:12:04.933Z,47.10
2018-12-02T16:14:33.446Z,50.07
2018-12-02T16:17:01.882Z,42.77
2018-12-02T16:19:30.456Z,42.10
2018-12-02T16:21:59.393Z,42.47
2018-12-02T16:24:28.234Z,41.30
2018-12-02T16:26:56.645Z,43.80
2018-12-02T16:29:24.867Z,42.67
2018-12-02T16:31:54.103Z,41.50
2018-12-02T16:34:22.804Z,40.50
2018-12-02T16:36:51.179Z,41.70
2018-12-02T16:39:19.738Z,43.33
2018-12-02T16:41:47.978Z,41.57
2018-12-02T16:44:16.308Z,37.53
2018-12-02T16:46:44.970Z,41.13
2018-12-02T16:49:13.884Z,36.97
2018-12-02T16:51:42.752Z,37.93
2018-12-02T16:54:11.164Z,38.37
2018-12-02T16:56:39.563Z,38.03
2018-12-02T16:59:07.960Z,38.00
2018-12-02T17:01:36.510Z,37.80
2018-12-02T17:04:04.983Z,40.00
2018-12-02T17:06:33.334Z,46.07
2018-12-02T17:09:01.892Z,42.00
2018-12-02T17:11:30.250Z,43.20
2018-12-02T17:13:58.665Z,43.87
2018-12-02T17:16:27.181Z,42.50
2018-12-02T17:18:55.519Z,39.40
2018-12-02T17:21:24.015Z,43.63
2018-12-02T17:23:52.475Z,41.33
2018-12-02T17:26:20.821Z,38.17
2018-12-02T17:28:49.235Z,35.73
2018-12-02T17:31:17.699Z,37.20
2018-12-02T17:33:46.039Z,41.77
2018-12-02T17:36:14.438Z,50.47
2018-12-02T17:38:42.949Z,49.63
2018-12-02T17:41:11.278Z,45.63
2018-12-02T17:43:43.828Z,49.40
2018-12-02T17:46:12.292Z,45.53
2018-12-02T17:48:40.854Z,56.63
2018-12-02T17:51:09.221Z,95.27
2018-12-02T17:53:37.642Z,42.07
2018-12-02T17:56:06.357Z,43.63
2018-12-02T17:58:34.735Z,41.70
2018-12-02T18:01:04.472Z,38.17
2018-12-02T18:03:32.712Z,39.83
2018-12-02T18:06:01.094Z,42.17
2018-12-02T18:08:29.719Z,38.20
2018-12-02T18:10:58.437Z,42.37
2018-12-02T18:13:29.097Z,39.33
2018-12-02T18:15:57.631Z,36.63
2018-12-02T18:18:26.135Z,40.13
2018-12-02T18:20:54.692Z,39.70
2018-12-02T18:23:23.334Z,41.03
2018-12-02T18:25:51.716Z,42.40
2018-12-02T18:28:20.743Z,40.07
2018-12-02T18:30:50.919Z,43.33
2018-12-02T18:33:19.888Z,41.33
2018-12-02T18:35:48.411Z,41.63
2018-12-02T18:38:17.800Z,41.40
2018-12-02T18:40:46.140Z,41.03
2018-12-02T18:43:14.558Z,37.13
2018-12-02T18:45:43.669Z,37.57
2018-12-02T18:48:12.237Z,40.50
2018-12-02T18:50:40.637Z,45.60
2018-12-02T18:53:08.972Z,39.43
2018-12-02T18:55:37.339Z,39.87
2018-12-02T18:58:05.668Z,42.17
2018-12-02T19:00:34.062Z,42.10
2018-12-02T19:03:02.466Z,42.93
2018-12-02T19:05:30.810Z,44.10
2018-12-02T19:07:59.256Z,46.77
2018-12-02T19:10:27.665Z,70.83
2018-12-02T19:12:56.339Z,47.77
2018-12-02T19:15:24.663Z,41.77
2018-12-02T19:17:52.994Z,45.63
2018-12-02T19:20:21.333Z,43.33
2018-12-02T19:22:49.714Z,47.83
2018-12-02T19:25:18.265Z,55.30
2018-12-02T19:27:46.900Z,48.87
2018-12-02T19:30:15.442Z,44.47
2018-12-02T19:32:43.092Z,46.30
2018-12-02T19:35:12.012Z,47.20
2018-12-02T19:37:41.082Z,46.73
2018-12-02T19:40:09.431Z,47.03
2018-12-02T19:42:37.857Z,41.87
2018-12-02T19:45:06.267Z,45.63
2018-12-02T19:47:34.599Z,43.50
2018-12-02T19:50:02.948Z,43.30
2018-12-02T19:52:31.278Z,46.90
2018-12-02T19:54:59.820Z,46.47
2018-12-02T19:57:28.309Z,48.20
2018-12-02T19:59:56.726Z,45.17
2018-12-02T20:02:25.304Z,46.17
2018-12-02T20:04:53.421Z,45.33
2018-12-02T20:07:21.761Z,43.83
2018-12-02T20:09:50.141Z,45.60
2018-12-02T20:12:18.614Z,43.40
2018-12-02T20:14:47.111Z,42.97
2018-12-02T20:17:15.669Z,55.87
2018-12-02T20:19:43.996Z,46.53
2018-12-02T20:22:13.592Z,46.73
2018-12-02T20:24:41.945Z,59.07
2018-12-02T20:27:10.291Z,45.80
2018-12-02T20:29:38.714Z,44.50
2018-12-02T20:32:07.093Z,46.33
2018-12-02T20:34:35.380Z,41.57
2018-12-02T20:37:03.767Z,44.03
2018-12-02T20:39:32.406Z,45.83
2018-12-02T20:42:00.737Z,43.57
2018-12-02T20:44:29.085Z,45.30
2018-12-02T20:46:57.932Z,42.87
2018-12-02T20:49:26.502Z,46.00
2018-12-02T20:51:54.613Z,41.93
2018-12-02T20:54:22.947Z,46.67
2018-12-02T20:56:51.285Z,39.63
2018-12-02T20:59:19.728Z,46.90
2018-12-02T21:01:48.104Z,48.83
2018-12-02T21:04:16.507Z,47.37
2018-12-02T21:06:45.044Z,46.47
2018-12-02T21:09:13.693Z,44.70
2018-12-02T21:11:42.054Z,47.37
2018-12-02T21:14:10.517Z,47.07
2018-12-02T21:16:38.863Z,45.07
2018-12-02T21:19:07.609Z,47.33
2018-12-02T21:21:37.281Z,43.30
2018-12-02T21:24:04.704Z,46.40
2018-12-02T21:26:33.102Z,44.73
2018-12-02T21:29:01.779Z,48.50
2018-12-02T21:31:30.412Z,48.47
2018-12-02T21:33:58.657Z,48.17
2018-12-02T21:36:26.988Z,54.40
2018-12-02T21:38:55.473Z,51.17
2018-12-02T21:41:24.715Z,44.17
2018-12-02T21:43:53.083Z,41.60
2018-12-02T21:46:21.422Z,44.17
2018-12-02T21:48:49.840Z,43.97
2018-12-02T21:51:18.192Z,42.10
2018-12-02T21:53:46.561Z,40.77
2018-12-02T21:56:14.921Z,45.13
2018-12-02T21:58:44.175Z,43.03
2018-12-02T22:01:12.507Z,38.97
2018-12-02T22:03:40.989Z,37.57
2018-12-02T22:06:09.348Z,41.47
2018-12-02T22:08:38.073Z,31.57
2018-12-02T22:11:06.183Z,32.87
2018-12-02T22:13:35.156Z,36.03
2018-12-02T22:16:03.700Z,33.70
2018-12-02T22:18:32.016Z,28.60
2018-12-02T22:21:00.583Z,29.17
2018-12-02T22:23:28.952Z,31.73
2018-12-02T22:25:57.606Z,31.13
2018-12-02T22:28:27.048Z,27.53
2018-12-02T22:30:56.729Z,27.83
2018-12-02T22:33:25.407Z,29.93
2018-12-02T22:35:53.726Z,30.47
2018-12-02T22:38:22.103Z,33.37
2018-12-02T22:40:50.571Z,26.77
2018-12-02T22:43:19.026Z,36.20
2018-12-02T22:45:47.546Z,31.03
2018-12-02T22:48:15.950Z,29.00
2018-12-02T22:50:44.433Z,28.53
2018-12-02T22:53:12.893Z,25.40
2018-12-02T22:55:41.267Z,26.03
2018-12-02T22:58:09.605Z,24.37
2018-12-02T23:00:38.109Z,24.87
2018-12-02T23:03:06.467Z,25.60
2018-12-02T23:05:34.799Z,30.70
2018-12-02T23:08:03.145Z,28.10
2018-12-02T23:10:31.475Z,23.77
2018-12-02T23:12:59.806Z,24.30
2018-12-02T23:15:28.140Z,24.47
2018-12-02T23:17:56.538Z,22.97
2018-12-02T23:20:24.996Z,23.37
2018-12-02T23:22:53.311Z,29.33
2018-12-02T23:25:21.719Z,21.17
2018-12-02T23:27:50.056Z,18.33
2018-12-02T23:30:18.392Z,20.43
2018-12-02T23:32:46.712Z,20.43
2018-12-02T23:35:15.113Z,21.33
2018-12-02T23:37:43.441Z,21.13
2018-12-02T23:40:11.738Z,21.53
2018-12-02T23:42:40.091Z,19.03
2018-12-02T23:45:08.509Z,19.07
2018-12-02T23:47:36.872Z,19.73
2018-12-02T23:50:05.265Z,18.10
2018-12-02T23:52:33.604Z,17.60
2018-12-02T23:55:01.925Z,22.77
2018-12-02T23:57:30.272Z,23.00
2018-12-02T23:59:58.618Z,25.87
